sensor_id;sensor_type;location;lat;lon;timestamp;P1;durP1;ratioP1;P2;durP2;ratioP2
11854;SDS011;5987;53.140;8.904;2023-04-19T00:01:24;10.83;;;7.07;;
11854;SDS011;5987;53.140;8.904;2023-04-19T00:04:30;9.80;;;6.67;;
11854;SDS011;5987;53.140;8.904;2023-04-19T00:07:34;8.77;;;5.90;;
11854;SDS011;5987;53.140;8.904;2023-04-19T00:10:37;10.17;;;6.57;;
11854;SDS011;5987;53.140;8.904;2023-04-19T00:13:41;9.80;;;6.20;;
11854;SDS011;5987;53.140;8.904;2023-04-19T00:16:45;7.97;;;6.00;;
11854;SDS011;5987;53.140;8.904;2023-04-19T00:19:50;8.87;;;6.03;;
11854;SDS011;5987;53.140;8.904;2023-04-19T00:22:53;9.10;;;5.60;;
11854;SDS011;5987;53.140;8.904;2023-04-19T00:26:01;9.80;;;6.30;;
11854;SDS011;5987;53.140;8.904;2023-04-19T00:29:05;7.50;;;5.70;;
11854;SDS011;5987;53.140;8.904;2023-04-19T00:32:09;8.07;;;5.87;;
11854;SDS011;5987;53.140;8.904;2023-04-19T00:35:14;10.47;;;5.77;;
11854;SDS011;5987;53.140;8.904;2023-04-19T00:38:17;10.17;;;5.50;;
11854;SDS011;5987;53.140;8.904;2023-04-19T00:41:21;7.87;;;5.97;;
11854;SDS011;5987;53.140;8.904;2023-04-19T00:44:24;8.63;;;5.50;;
11854;SDS011;5987;53.140;8.904;2023-04-19T00:47:28;7.40;;;5.87;;
11854;SDS011;5987;53.140;8.904;2023-04-19T00:50:33;9.93;;;6.27;;
11854;SDS011;5987;53.140;8.904;2023-04-19T00:53:37;12.53;;;6.03;;
11854;SDS011;5987;53.140;8.904;2023-04-19T00:56:43;8.33;;;6.03;;
11854;SDS011;5987;53.140;8.904;2023-04-19T00:59:47;11.33;;;6.67;;
11854;SDS011;5987;53.140;8.904;2023-04-19T01:02:51;9.67;;;6.50;;
11854;SDS011;5987;53.140;8.904;2023-04-19T01:05:57;10.90;;;6.13;;
11854;SDS011;5987;53.140;8.904;2023-04-19T01:09:01;9.43;;;5.93;;
11854;SDS011;5987;53.140;8.904;2023-04-19T01:12:05;8.70;;;5.87;;
11854;SDS011;5987;53.140;8.904;2023-04-19T01:15:09;9.43;;;6.00;;
11854;SDS011;5987;53.140;8.904;2023-04-19T01:18:13;9.30;;;6.20;;
11854;SDS011;5987;53.140;8.904;2023-04-19T01:21:18;8.80;;;5.30;;
11854;SDS011;5987;53.140;8.904;2023-04-19T01:24:24;8.90;;;5.77;;
11854;SDS011;5987;53.140;8.904;2023-04-19T01:27:28;8.97;;;6.87;;
11854;SDS011;5987;53.140;8.904;2023-04-19T01:30:33;8.03;;;5.63;;
11854;SDS011;5987;53.140;8.904;2023-04-19T01:33:38;8.40;;;5.30;;
11854;SDS011;5987;53.140;8.904;2023-04-19T01:36:41;8.17;;;6.07;;
11854;SDS011;5987;53.140;8.904;2023-04-19T01:39:46;8.90;;;5.70;;
11854;SDS011;5987;53.140;8.904;2023-04-19T01:42:50;8.37;;;5.53;;
11854;SDS011;5987;53.140;8.904;2023-04-19T01:45:54;6.53;;;5.43;;
11854;SDS011;5987;53.140;8.904;2023-04-19T01:48:57;8.27;;;5.40;;
11854;SDS011;5987;53.140;8.904;2023-04-19T01:52:01;9.13;;;5.70;;
11854;SDS011;5987;53.140;8.904;2023-04-19T01:55:07;6.77;;;6.00;;
11854;SDS011;5987;53.140;8.904;2023-04-19T01:58:11;6.70;;;5.20;;
11854;SDS011;5987;53.140;8.904;2023-04-19T02:01:14;9.57;;;6.10;;
11854;SDS011;5987;53.140;8.904;2023-04-19T02:04:18;9.43;;;6.10;;
11854;SDS011;5987;53.140;8.904;2023-04-19T02:07:22;8.07;;;5.73;;
11854;SDS011;5987;53.140;8.904;2023-04-19T02:10:27;10.17;;;5.87;;
11854;SDS011;5987;53.140;8.904;2023-04-19T02:13:31;10.83;;;6.00;;
11854;SDS011;5987;53.140;8.904;2023-04-19T02:16:34;8.47;;;5.20;;
11854;SDS011;5987;53.140;8.904;2023-04-19T02:19:38;7.80;;;5.80;;
11854;SDS011;5987;53.140;8.904;2023-04-19T02:22:41;9.20;;;6.03;;
11854;SDS011;5987;53.140;8.904;2023-04-19T02:25:46;8.47;;;5.60;;
11854;SDS011;5987;53.140;8.904;2023-04-19T02:28:50;8.20;;;6.43;;
11854;SDS011;5987;53.140;8.904;2023-04-19T02:31:56;9.67;;;6.40;;
11854;SDS011;5987;53.140;8.904;2023-04-19T02:35:00;8.83;;;6.20;;
11854;SDS011;5987;53.140;8.904;2023-04-19T02:38:03;10.50;;;5.90;;
11854;SDS011;5987;53.140;8.904;2023-04-19T02:41:08;8.13;;;5.57;;
11854;SDS011;5987;53.140;8.904;2023-04-19T02:44:12;8.50;;;5.57;;
11854;SDS011;5987;53.140;8.904;2023-04-19T02:47:16;6.93;;;5.43;;
11854;SDS011;5987;53.140;8.904;2023-04-19T02:50:19;8.87;;;5.33;;
11854;SDS011;5987;53.140;8.904;2023-04-19T02:53:23;10.83;;;5.67;;
11854;SDS011;5987;53.140;8.904;2023-04-19T02:56:28;10.47;;;5.40;;
11854;SDS011;5987;53.140;8.904;2023-04-19T02:59:31;10.03;;;6.10;;
11854;SDS011;5987;53.140;8.904;2023-04-19T03:02:35;8.73;;;5.67;;
11854;SDS011;5987;53.140;8.904;2023-04-19T03:05:40;10.30;;;6.67;;
11854;SDS011;5987;53.140;8.904;2023-04-19T03:08:43;9.67;;;5.73;;
11854;SDS011;5987;53.140;8.904;2023-04-19T03:11:48;7.73;;;6.13;;
11854;SDS011;5987;53.140;8.904;2023-04-19T03:14:52;11.90;;;5.90;;
11854;SDS011;5987;53.140;8.904;2023-04-19T03:17:55;9.93;;;6.50;;
11854;SDS011;5987;53.140;8.904;2023-04-19T03:20:59;9.20;;;6.27;;
11854;SDS011;5987;53.140;8.904;2023-04-19T03:24:03;10.33;;;6.00;;
11854;SDS011;5987;53.140;8.904;2023-04-19T03:27:08;7.90;;;6.00;;
11854;SDS011;5987;53.140;8.904;2023-04-19T03:30:12;9.40;;;6.20;;
11854;SDS011;5987;53.140;8.904;2023-04-19T03:33:15;10.73;;;6.77;;
11854;SDS011;5987;53.140;8.904;2023-04-19T03:36:19;9.53;;;5.97;;
11854;SDS011;5987;53.140;8.904;2023-04-19T03:39:23;9.03;;;6.20;;
11854;SDS011;5987;53.140;8.904;2023-04-19T03:42:28;7.73;;;6.20;;
11854;SDS011;5987;53.140;8.904;2023-04-19T03:45:32;8.40;;;5.50;;
11854;SDS011;5987;53.140;8.904;2023-04-19T03:48:36;9.90;;;6.30;;
11854;SDS011;5987;53.140;8.904;2023-04-19T03:51:39;7.27;;;5.50;;
11854;SDS011;5987;53.140;8.904;2023-04-19T03:54:43;13.13;;;6.13;;
11854;SDS011;5987;53.140;8.904;2023-04-19T03:57:48;10.97;;;6.73;;
11854;SDS011;5987;53.140;8.904;2023-04-19T04:00:51;9.43;;;6.57;;
11854;SDS011;5987;53.140;8.904;2023-04-19T04:03:55;8.63;;;6.33;;
11854;SDS011;5987;53.140;8.904;2023-04-19T04:06:59;11.90;;;5.87;;
11854;SDS011;5987;53.140;8.904;2023-04-19T04:10:03;8.80;;;5.93;;
11854;SDS011;5987;53.140;8.904;2023-04-19T04:13:09;10.10;;;6.03;;
11854;SDS011;5987;53.140;8.904;2023-04-19T04:16:12;9.47;;;5.53;;
11854;SDS011;5987;53.140;8.904;2023-04-19T04:19:16;10.50;;;6.30;;
11854;SDS011;5987;53.140;8.904;2023-04-19T04:22:22;10.00;;;5.80;;
11854;SDS011;5987;53.140;8.904;2023-04-19T04:25:26;11.40;;;5.93;;
11854;SDS011;5987;53.140;8.904;2023-04-19T04:28:31;10.77;;;6.60;;
11854;SDS011;5987;53.140;8.904;2023-04-19T04:31:35;9.07;;;5.63;;
11854;SDS011;5987;53.140;8.904;2023-04-19T04:34:38;11.60;;;6.13;;
11854;SDS011;5987;53.140;8.904;2023-04-19T04:37:43;9.83;;;5.90;;
11854;SDS011;5987;53.140;8.904;2023-04-19T04:40:48;9.57;;;6.53;;
11854;SDS011;5987;53.140;8.904;2023-04-19T04:43:55;9.83;;;6.83;;
11854;SDS011;5987;53.140;8.904;2023-04-19T04:47:13;8.40;;;5.87;;
11854;SDS011;5987;53.140;8.904;2023-04-19T04:50:16;9.93;;;6.53;;
11854;SDS011;5987;53.140;8.904;2023-04-19T04:53:20;14.23;;;7.00;;
11854;SDS011;5987;53.140;8.904;2023-04-19T04:56:23;8.93;;;6.23;;
11854;SDS011;5987;53.140;8.904;2023-04-19T04:59:29;10.73;;;6.07;;
11854;SDS011;5987;53.140;8.904;2023-04-19T05:02:32;9.83;;;5.93;;
11854;SDS011;5987;53.140;8.904;2023-04-19T05:05:37;12.33;;;6.63;;
11854;SDS011;5987;53.140;8.904;2023-04-19T05:08:40;10.27;;;6.67;;
11854;SDS011;5987;53.140;8.904;2023-04-19T05:11:44;12.80;;;7.00;;
11854;SDS011;5987;53.140;8.904;2023-04-19T05:14:51;8.23;;;5.40;;
11854;SDS011;5987;53.140;8.904;2023-04-19T05:17:55;12.33;;;6.20;;
11854;SDS011;5987;53.140;8.904;2023-04-19T05:20:59;8.53;;;5.93;;
11854;SDS011;5987;53.140;8.904;2023-04-19T05:24:04;9.50;;;6.07;;
11854;SDS011;5987;53.140;8.904;2023-04-19T05:27:10;8.43;;;5.53;;
11854;SDS011;5987;53.140;8.904;2023-04-19T05:30:15;10.87;;;6.13;;
11854;SDS011;5987;53.140;8.904;2023-04-19T05:33:19;15.93;;;6.33;;
11854;SDS011;5987;53.140;8.904;2023-04-19T05:36:23;12.17;;;6.00;;
11854;SDS011;5987;53.140;8.904;2023-04-19T05:39:27;10.57;;;5.20;;
11854;SDS011;5987;53.140;8.904;2023-04-19T05:42:31;10.57;;;5.43;;
11854;SDS011;5987;53.140;8.904;2023-04-19T05:45:36;11.03;;;5.63;;
11854;SDS011;5987;53.140;8.904;2023-04-19T05:48:39;8.67;;;5.47;;
11854;SDS011;5987;53.140;8.904;2023-04-19T05:51:43;9.67;;;4.83;;
11854;SDS011;5987;53.140;8.904;2023-04-19T05:54:46;8.20;;;5.20;;
11854;SDS011;5987;53.140;8.904;2023-04-19T05:57:50;7.87;;;4.73;;
11854;SDS011;5987;53.140;8.904;2023-04-19T06:00:55;7.03;;;5.13;;
11854;SDS011;5987;53.140;8.904;2023-04-19T06:03:59;6.90;;;4.13;;
11854;SDS011;5987;53.140;8.904;2023-04-19T06:07:03;7.20;;;4.93;;
11854;SDS011;5987;53.140;8.904;2023-04-19T06:10:18;7.50;;;4.43;;
11854;SDS011;5987;53.140;8.904;2023-04-19T06:13:21;10.67;;;4.87;;
11854;SDS011;5987;53.140;8.904;2023-04-19T06:16:26;6.87;;;5.30;;
11854;SDS011;5987;53.140;8.904;2023-04-19T06:19:30;7.67;;;4.40;;
11854;SDS011;5987;53.140;8.904;2023-04-19T06:22:34;8.37;;;4.47;;
11854;SDS011;5987;53.140;8.904;2023-04-19T06:25:44;5.67;;;3.77;;
11854;SDS011;5987;53.140;8.904;2023-04-19T06:28:49;6.97;;;3.80;;
11854;SDS011;5987;53.140;8.904;2023-04-19T06:31:54;5.73;;;3.83;;
11854;SDS011;5987;53.140;8.904;2023-04-19T06:34:58;4.27;;;3.20;;
11854;SDS011;5987;53.140;8.904;2023-04-19T06:38:01;5.07;;;3.30;;
11854;SDS011;5987;53.140;8.904;2023-04-19T06:41:05;4.17;;;3.47;;
11854;SDS011;5987;53.140;8.904;2023-04-19T06:44:09;4.93;;;4.07;;
11854;SDS011;5987;53.140;8.904;2023-04-19T06:47:15;6.67;;;3.73;;
11854;SDS011;5987;53.140;8.904;2023-04-19T06:50:18;3.50;;;2.90;;
11854;SDS011;5987;53.140;8.904;2023-04-19T06:53:22;4.47;;;3.23;;
11854;SDS011;5987;53.140;8.904;2023-04-19T06:56:40;3.93;;;3.00;;
11854;SDS011;5987;53.140;8.904;2023-04-19T06:59:47;4.07;;;2.97;;
11854;SDS011;5987;53.140;8.904;2023-04-19T07:02:52;4.60;;;3.17;;
11854;SDS011;5987;53.140;8.904;2023-04-19T07:05:55;4.77;;;3.53;;
11854;SDS011;5987;53.140;8.904;2023-04-19T07:08:59;5.53;;;2.97;;
11854;SDS011;5987;53.140;8.904;2023-04-19T07:12:04;4.20;;;3.03;;
11854;SDS011;5987;53.140;8.904;2023-04-19T07:15:21;3.63;;;2.73;;
11854;SDS011;5987;53.140;8.904;2023-04-19T07:18:26;4.93;;;3.07;;
11854;SDS011;5987;53.140;8.904;2023-04-19T07:21:30;4.70;;;3.20;;
11854;SDS011;5987;53.140;8.904;2023-04-19T07:24:35;3.93;;;2.77;;
11854;SDS011;5987;53.140;8.904;2023-04-19T07:27:40;3.47;;;2.70;;
11854;SDS011;5987;53.140;8.904;2023-04-19T07:30:44;3.73;;;2.70;;
11854;SDS011;5987;53.140;8.904;2023-04-19T07:33:49;3.37;;;2.33;;
11854;SDS011;5987;53.140;8.904;2023-04-19T07:36:53;3.97;;;2.40;;
11854;SDS011;5987;53.140;8.904;2023-04-19T07:39:56;4.83;;;2.07;;
11854;SDS011;5987;53.140;8.904;2023-04-19T07:43:00;4.03;;;2.17;;
11854;SDS011;5987;53.140;8.904;2023-04-19T07:46:07;4.20;;;2.30;;
11854;SDS011;5987;53.140;8.904;2023-04-19T07:49:14;3.33;;;1.80;;
11854;SDS011;5987;53.140;8.904;2023-04-19T07:52:18;3.83;;;1.97;;
11854;SDS011;5987;53.140;8.904;2023-04-19T07:55:22;3.90;;;2.27;;
11854;SDS011;5987;53.140;8.904;2023-04-19T07:58:26;2.87;;;2.17;;
11854;SDS011;5987;53.140;8.904;2023-04-19T08:01:29;2.73;;;2.17;;
11854;SDS011;5987;53.140;8.904;2023-04-19T08:04:34;1.97;;;1.50;;
11854;SDS011;5987;53.140;8.904;2023-04-19T08:07:40;1.53;;;0.97;;
11854;SDS011;5987;53.140;8.904;2023-04-19T08:10:44;1.10;;;1.00;;
11854;SDS011;5987;53.140;8.904;2023-04-19T08:13:47;1.50;;;1.10;;
11854;SDS011;5987;53.140;8.904;2023-04-19T08:17:09;3.13;;;0.93;;
11854;SDS011;5987;53.140;8.904;2023-04-19T08:20:28;1.20;;;1.07;;
11854;SDS011;5987;53.140;8.904;2023-04-19T08:23:32;1.37;;;1.00;;
11854;SDS011;5987;53.140;8.904;2023-04-19T08:26:48;1.50;;;1.40;;
11854;SDS011;5987;53.140;8.904;2023-04-19T08:29:55;1.20;;;1.10;;
11854;SDS011;5987;53.140;8.904;2023-04-19T08:32:58;0.83;;;0.83;;
11854;SDS011;5987;53.140;8.904;2023-04-19T08:36:04;2.90;;;1.10;;
11854;SDS011;5987;53.140;8.904;2023-04-19T08:39:09;2.13;;;1.40;;
11854;SDS011;5987;53.140;8.904;2023-04-19T08:42:32;1.83;;;1.00;;
11854;SDS011;5987;53.140;8.904;2023-04-19T08:45:37;1.20;;;1.10;;
11854;SDS011;5987;53.140;8.904;2023-04-19T08:48:42;1.33;;;1.00;;
11854;SDS011;5987;53.140;8.904;2023-04-19T08:51:50;2.43;;;1.13;;
11854;SDS011;5987;53.140;8.904;2023-04-19T08:54:54;2.70;;;1.33;;
11854;SDS011;5987;53.140;8.904;2023-04-19T08:57:59;2.67;;;1.10;;
11854;SDS011;5987;53.140;8.904;2023-04-19T09:01:12;3.60;;;1.23;;
11854;SDS011;5987;53.140;8.904;2023-04-19T09:04:33;2.53;;;1.57;;
11854;SDS011;5987;53.140;8.904;2023-04-19T09:07:39;1.27;;;1.17;;
11854;SDS011;5987;53.140;8.904;2023-04-19T09:10:44;3.07;;;1.70;;
11854;SDS011;5987;53.140;8.904;2023-04-19T09:14:06;2.87;;;1.23;;
11854;SDS011;5987;53.140;8.904;2023-04-19T09:17:11;1.63;;;1.30;;
11854;SDS011;5987;53.140;8.904;2023-04-19T09:20:19;2.50;;;1.00;;
11854;SDS011;5987;53.140;8.904;2023-04-19T09:23:45;1.50;;;1.27;;
11854;SDS011;5987;53.140;8.904;2023-04-19T09:26:53;3.57;;;1.60;;
11854;SDS011;5987;53.140;8.904;2023-04-19T09:29:58;1.87;;;1.20;;
11854;SDS011;5987;53.140;8.904;2023-04-19T09:33:04;3.10;;;1.30;;
11854;SDS011;5987;53.140;8.904;2023-04-19T09:36:09;1.73;;;1.20;;
11854;SDS011;5987;53.140;8.904;2023-04-19T09:39:18;3.67;;;1.70;;
11854;SDS011;5987;53.140;8.904;2023-04-19T09:42:43;3.97;;;1.40;;
11854;SDS011;5987;53.140;8.904;2023-04-19T09:45:50;2.87;;;1.17;;
11854;SDS011;5987;53.140;8.904;2023-04-19T09:48:54;1.53;;;1.20;;
11854;SDS011;5987;53.140;8.904;2023-04-19T09:52:28;1.77;;;1.60;;
11854;SDS011;5987;53.140;8.904;2023-04-19T09:55:33;2.30;;;1.23;;
11854;SDS011;5987;53.140;8.904;2023-04-19T09:58:58;2.73;;;1.40;;
11854;SDS011;5987;53.140;8.904;2023-04-19T10:02:20;1.37;;;1.03;;
11854;SDS011;5987;53.140;8.904;2023-04-19T10:05:27;1.83;;;1.23;;
11854;SDS011;5987;53.140;8.904;2023-04-19T10:08:32;2.50;;;1.20;;
11854;SDS011;5987;53.140;8.904;2023-04-19T10:11:37;2.23;;;1.60;;
11854;SDS011;5987;53.140;8.904;2023-04-19T10:14:43;3.03;;;1.40;;
11854;SDS011;5987;53.140;8.904;2023-04-19T10:17:47;2.10;;;1.13;;
11854;SDS011;5987;53.140;8.904;2023-04-19T10:20:52;2.50;;;1.27;;
11854;SDS011;5987;53.140;8.904;2023-04-19T10:24:02;1.10;;;1.00;;
11854;SDS011;5987;53.140;8.904;2023-04-19T10:27:09;1.47;;;1.20;;
11854;SDS011;5987;53.140;8.904;2023-04-19T10:30:17;2.07;;;1.33;;
11854;SDS011;5987;53.140;8.904;2023-04-19T10:33:23;1.47;;;1.00;;
11854;SDS011;5987;53.140;8.904;2023-04-19T10:36:28;2.80;;;1.10;;
11854;SDS011;5987;53.140;8.904;2023-04-19T10:39:38;5.67;;;1.40;;
11854;SDS011;5987;53.140;8.904;2023-04-19T10:49:43;1.93;;;1.30;;
11854;SDS011;5987;53.140;8.904;2023-04-19T10:52:47;1.57;;;1.20;;
11854;SDS011;5987;53.140;8.904;2023-04-19T10:55:51;1.53;;;1.33;;
11854;SDS011;5987;53.140;8.904;2023-04-19T11:02:27;2.30;;;1.37;;
11854;SDS011;5987;53.140;8.904;2023-04-19T11:05:48;3.60;;;1.70;;
11854;SDS011;5987;53.140;8.904;2023-04-19T11:09:20;3.97;;;1.50;;
11854;SDS011;5987;53.140;8.904;2023-04-19T11:12:25;2.17;;;1.23;;
11854;SDS011;5987;53.140;8.904;2023-04-19T11:15:30;4.17;;;1.40;;
11854;SDS011;5987;53.140;8.904;2023-04-19T11:18:34;2.10;;;1.33;;
11854;SDS011;5987;53.140;8.904;2023-04-19T11:21:38;3.17;;;1.17;;
11854;SDS011;5987;53.140;8.904;2023-04-19T11:24:45;2.43;;;1.50;;
11854;SDS011;5987;53.140;8.904;2023-04-19T11:27:49;2.97;;;1.60;;
11854;SDS011;5987;53.140;8.904;2023-04-19T11:30:55;3.40;;;1.40;;
11854;SDS011;5987;53.140;8.904;2023-04-19T11:33:59;2.67;;;1.50;;
11854;SDS011;5987;53.140;8.904;2023-04-19T11:37:05;3.13;;;1.30;;
11854;SDS011;5987;53.140;8.904;2023-04-19T11:40:13;2.97;;;1.80;;
11854;SDS011;5987;53.140;8.904;2023-04-19T11:43:19;3.17;;;1.20;;
11854;SDS011;5987;53.140;8.904;2023-04-19T11:46:24;2.27;;;1.60;;
11854;SDS011;5987;53.140;8.904;2023-04-19T11:49:28;4.17;;;1.40;;
11854;SDS011;5987;53.140;8.904;2023-04-19T11:52:34;1.37;;;1.27;;
11854;SDS011;5987;53.140;8.904;2023-04-19T11:55:37;1.63;;;1.33;;
11854;SDS011;5987;53.140;8.904;2023-04-19T11:58:44;2.37;;;1.90;;
11854;SDS011;5987;53.140;8.904;2023-04-19T12:01:50;3.43;;;2.00;;
11854;SDS011;5987;53.140;8.904;2023-04-19T12:04:54;2.83;;;1.57;;
11854;SDS011;5987;53.140;8.904;2023-04-19T12:08:01;3.77;;;2.23;;
11854;SDS011;5987;53.140;8.904;2023-04-19T12:11:08;3.80;;;1.80;;
11854;SDS011;5987;53.140;8.904;2023-04-19T12:14:12;4.97;;;1.57;;
11854;SDS011;5987;53.140;8.904;2023-04-19T12:17:20;2.83;;;1.70;;
11854;SDS011;5987;53.140;8.904;2023-04-19T12:20:28;3.50;;;2.13;;
11854;SDS011;5987;53.140;8.904;2023-04-19T12:23:33;8.23;;;1.83;;
11854;SDS011;5987;53.140;8.904;2023-04-19T12:26:36;2.47;;;1.53;;
11854;SDS011;5987;53.140;8.904;2023-04-19T12:29:56;2.50;;;1.27;;
11854;SDS011;5987;53.140;8.904;2023-04-19T12:33:02;4.30;;;1.70;;
11854;SDS011;5987;53.140;8.904;2023-04-19T12:36:06;3.77;;;1.50;;
11854;SDS011;5987;53.140;8.904;2023-04-19T12:39:10;2.37;;;1.60;;
11854;SDS011;5987;53.140;8.904;2023-04-19T12:42:14;2.27;;;1.60;;
11854;SDS011;5987;53.140;8.904;2023-04-19T12:45:17;5.07;;;1.93;;
11854;SDS011;5987;53.140;8.904;2023-04-19T12:48:23;3.00;;;1.80;;
11854;SDS011;5987;53.140;8.904;2023-04-19T12:51:27;2.63;;;1.57;;
11854;SDS011;5987;53.140;8.904;2023-04-19T12:54:32;2.40;;;1.70;;
11854;SDS011;5987;53.140;8.904;2023-04-19T12:57:36;2.90;;;1.70;;
11854;SDS011;5987;53.140;8.904;2023-04-19T13:00:39;1.90;;;1.60;;
11854;SDS011;5987;53.140;8.904;2023-04-19T13:03:44;4.63;;;2.00;;
11854;SDS011;5987;53.140;8.904;2023-04-19T13:06:48;5.03;;;1.70;;
11854;SDS011;5987;53.140;8.904;2023-04-19T13:09:52;3.27;;;1.87;;
11854;SDS011;5987;53.140;8.904;2023-04-19T13:12:57;3.57;;;1.80;;
11854;SDS011;5987;53.140;8.904;2023-04-19T13:16:01;3.40;;;2.00;;
11854;SDS011;5987;53.140;8.904;2023-04-19T13:19:06;3.57;;;2.13;;
11854;SDS011;5987;53.140;8.904;2023-04-19T13:22:11;3.13;;;2.00;;
11854;SDS011;5987;53.140;8.904;2023-04-19T13:25:15;2.63;;;1.73;;
11854;SDS011;5987;53.140;8.904;2023-04-19T13:28:18;3.70;;;2.00;;
11854;SDS011;5987;53.140;8.904;2023-04-19T13:31:22;3.70;;;2.50;;
11854;SDS011;5987;53.140;8.904;2023-04-19T13:34:29;2.10;;;1.87;;
11854;SDS011;5987;53.140;8.904;2023-04-19T13:37:33;2.20;;;1.87;;
11854;SDS011;5987;53.140;8.904;2023-04-19T13:40:37;2.47;;;1.60;;
11854;SDS011;5987;53.140;8.904;2023-04-19T13:43:40;3.30;;;1.93;;
11854;SDS011;5987;53.140;8.904;2023-04-19T13:46:44;2.63;;;2.13;;
11854;SDS011;5987;53.140;8.904;2023-04-19T13:49:49;2.67;;;1.80;;
11854;SDS011;5987;53.140;8.904;2023-04-19T13:52:53;7.63;;;2.10;;
11854;SDS011;5987;53.140;8.904;2023-04-19T13:55:57;3.97;;;2.20;;
11854;SDS011;5987;53.140;8.904;2023-04-19T13:59:01;5.13;;;2.10;;
11854;SDS011;5987;53.140;8.904;2023-04-19T14:02:04;6.83;;;2.63;;
11854;SDS011;5987;53.140;8.904;2023-04-19T14:05:10;3.57;;;2.07;;
11854;SDS011;5987;53.140;8.904;2023-04-19T14:08:13;3.30;;;2.10;;
11854;SDS011;5987;53.140;8.904;2023-04-19T14:11:17;5.03;;;2.20;;
11854;SDS011;5987;53.140;8.904;2023-04-19T14:14:21;4.43;;;2.27;;
11854;SDS011;5987;53.140;8.904;2023-04-19T14:17:26;2.77;;;2.17;;
11854;SDS011;5987;53.140;8.904;2023-04-19T14:20:31;6.27;;;2.63;;
11854;SDS011;5987;53.140;8.904;2023-04-19T14:23:34;3.13;;;2.43;;
11854;SDS011;5987;53.140;8.904;2023-04-19T14:26:38;2.70;;;1.93;;
11854;SDS011;5987;53.140;8.904;2023-04-19T14:29:42;6.77;;;2.40;;
11854;SDS011;5987;53.140;8.904;2023-04-19T14:32:45;4.37;;;2.27;;
11854;SDS011;5987;53.140;8.904;2023-04-19T14:35:50;3.40;;;1.80;;
11854;SDS011;5987;53.140;8.904;2023-04-19T14:38:54;3.80;;;1.93;;
11854;SDS011;5987;53.140;8.904;2023-04-19T14:41:57;2.87;;;2.00;;
11854;SDS011;5987;53.140;8.904;2023-04-19T14:45:02;4.67;;;1.90;;
11854;SDS011;5987;53.140;8.904;2023-04-19T14:48:07;4.40;;;2.10;;
11854;SDS011;5987;53.140;8.904;2023-04-19T14:51:12;6.27;;;1.57;;
11854;SDS011;5987;53.140;8.904;2023-04-19T14:54:18;4.53;;;2.00;;
11854;SDS011;5987;53.140;8.904;2023-04-19T14:57:22;3.97;;;2.60;;
11854;SDS011;5987;53.140;8.904;2023-04-19T15:00:26;5.00;;;1.93;;
11854;SDS011;5987;53.140;8.904;2023-04-19T15:03:29;3.93;;;1.63;;
11854;SDS011;5987;53.140;8.904;2023-04-19T15:06:35;2.03;;;1.83;;
11854;SDS011;5987;53.140;8.904;2023-04-19T15:09:38;5.80;;;1.93;;
11854;SDS011;5987;53.140;8.904;2023-04-19T15:12:42;2.80;;;1.67;;
11854;SDS011;5987;53.140;8.904;2023-04-19T15:15:46;5.43;;;2.03;;
11854;SDS011;5987;53.140;8.904;2023-04-19T15:18:50;2.42;;;2.10;;
11854;SDS011;5987;53.140;8.904;2023-04-19T15:21:55;3.10;;;2.20;;
11854;SDS011;5987;53.140;8.904;2023-04-19T15:24:59;3.30;;;1.90;;
11854;SDS011;5987;53.140;8.904;2023-04-19T15:28:03;7.30;;;3.20;;
11854;SDS011;5987;53.140;8.904;2023-04-19T15:31:07;4.47;;;2.10;;
11854;SDS011;5987;53.140;8.904;2023-04-19T15:34:10;3.80;;;1.63;;
11854;SDS011;5987;53.140;8.904;2023-04-19T15:37:15;2.40;;;2.20;;
11854;SDS011;5987;53.140;8.904;2023-04-19T15:40:19;8.07;;;1.97;;
11854;SDS011;5987;53.140;8.904;2023-04-19T15:43:25;2.10;;;1.50;;
11854;SDS011;5987;53.140;8.904;2023-04-19T15:46:29;3.00;;;2.00;;
11854;SDS011;5987;53.140;8.904;2023-04-19T15:49:32;2.00;;;1.77;;
11854;SDS011;5987;53.140;8.904;2023-04-19T15:52:37;2.70;;;1.63;;
11854;SDS011;5987;53.140;8.904;2023-04-19T15:55:41;3.00;;;1.60;;
11854;SDS011;5987;53.140;8.904;2023-04-19T15:58:47;7.27;;;1.80;;
11854;SDS011;5987;53.140;8.904;2023-04-19T16:01:50;2.47;;;1.70;;
11854;SDS011;5987;53.140;8.904;2023-04-19T16:04:54;3.97;;;1.90;;
11854;SDS011;5987;53.140;8.904;2023-04-19T16:08:02;3.50;;;1.77;;
11854;SDS011;5987;53.140;8.904;2023-04-19T16:11:09;5.80;;;1.60;;
11854;SDS011;5987;53.140;8.904;2023-04-19T16:14:12;3.70;;;1.57;;
11854;SDS011;5987;53.140;8.904;2023-04-19T16:17:16;2.53;;;1.73;;
11854;SDS011;5987;53.140;8.904;2023-04-19T16:20:20;1.80;;;1.57;;
11854;SDS011;5987;53.140;8.904;2023-04-19T16:23:25;4.87;;;1.97;;
11854;SDS011;5987;53.140;8.904;2023-04-19T16:26:28;4.60;;;1.67;;
11854;SDS011;5987;53.140;8.904;2023-04-19T16:29:32;3.40;;;2.10;;
11854;SDS011;5987;53.140;8.904;2023-04-19T16:32:36;2.13;;;1.43;;
11854;SDS011;5987;53.140;8.904;2023-04-19T16:35:39;2.50;;;1.60;;
11854;SDS011;5987;53.140;8.904;2023-04-19T16:38:44;6.53;;;2.73;;
11854;SDS011;5987;53.140;8.904;2023-04-19T16:41:48;3.43;;;1.83;;
11854;SDS011;5987;53.140;8.904;2023-04-19T16:44:52;4.50;;;1.90;;
11854;SDS011;5987;53.140;8.904;2023-04-19T16:47:55;3.80;;;1.90;;
11854;SDS011;5987;53.140;8.904;2023-04-19T16:50:59;1.77;;;1.40;;
11854;SDS011;5987;53.140;8.904;2023-04-19T16:54:04;4.97;;;1.67;;
11854;SDS011;5987;53.140;8.904;2023-04-19T16:57:08;2.60;;;1.60;;
11854;SDS011;5987;53.140;8.904;2023-04-19T17:00:12;3.47;;;2.07;;
11854;SDS011;5987;53.140;8.904;2023-04-19T17:03:16;3.63;;;1.90;;
11854;SDS011;5987;53.140;8.904;2023-04-19T17:06:20;6.53;;;1.50;;
11854;SDS011;5987;53.140;8.904;2023-04-19T17:09:25;1.63;;;1.50;;
11854;SDS011;5987;53.140;8.904;2023-04-19T17:12:29;5.73;;;1.70;;
11854;SDS011;5987;53.140;8.904;2023-04-19T17:15:33;2.13;;;1.80;;
11854;SDS011;5987;53.140;8.904;2023-04-19T17:18:39;2.37;;;1.50;;
11854;SDS011;5987;53.140;8.904;2023-04-19T17:21:42;3.03;;;1.63;;
11854;SDS011;5987;53.140;8.904;2023-04-19T17:24:47;2.53;;;1.57;;
11854;SDS011;5987;53.140;8.904;2023-04-19T17:27:51;7.07;;;1.60;;
11854;SDS011;5987;53.140;8.904;2023-04-19T17:30:54;9.80;;;2.03;;
11854;SDS011;5987;53.140;8.904;2023-04-19T17:33:58;5.00;;;1.93;;
11854;SDS011;5987;53.140;8.904;2023-04-19T17:37:02;2.83;;;1.60;;
11854;SDS011;5987;53.140;8.904;2023-04-19T17:40:08;3.07;;;1.60;;
11854;SDS011;5987;53.140;8.904;2023-04-19T17:43:12;2.23;;;1.43;;
11854;SDS011;5987;53.140;8.904;2023-04-19T17:46:16;3.27;;;1.50;;
11854;SDS011;5987;53.140;8.904;2023-04-19T17:49:21;5.87;;;1.83;;
11854;SDS011;5987;53.140;8.904;2023-04-19T17:52:26;4.73;;;1.80;;
11854;SDS011;5987;53.140;8.904;2023-04-19T17:55:31;3.63;;;1.57;;
11854;SDS011;5987;53.140;8.904;2023-04-19T17:58:35;2.97;;;1.53;;
11854;SDS011;5987;53.140;8.904;2023-04-19T18:01:39;2.53;;;1.63;;
11854;SDS011;5987;53.140;8.904;2023-04-19T18:04:42;3.07;;;1.60;;
11854;SDS011;5987;53.140;8.904;2023-04-19T18:07:47;5.43;;;1.40;;
11854;SDS011;5987;53.140;8.904;2023-04-19T18:10:52;3.73;;;1.37;;
11854;SDS011;5987;53.140;8.904;2023-04-19T18:13:56;3.40;;;1.50;;
11854;SDS011;5987;53.140;8.904;2023-04-19T18:16:59;2.40;;;1.53;;
11854;SDS011;5987;53.140;8.904;2023-04-19T18:20:07;6.30;;;1.37;;
11854;SDS011;5987;53.140;8.904;2023-04-19T18:23:14;6.63;;;1.70;;
11854;SDS011;5987;53.140;8.904;2023-04-19T18:26:19;2.13;;;1.53;;
11854;SDS011;5987;53.140;8.904;2023-04-19T18:29:23;1.63;;;1.27;;
11854;SDS011;5987;53.140;8.904;2023-04-19T18:32:27;5.93;;;1.67;;
11854;SDS011;5987;53.140;8.904;2023-04-19T18:35:32;3.20;;;1.53;;
11854;SDS011;5987;53.140;8.904;2023-04-19T18:38:37;2.50;;;1.40;;
11854;SDS011;5987;53.140;8.904;2023-04-19T18:41:42;6.23;;;1.50;;
11854;SDS011;5987;53.140;8.904;2023-04-19T18:44:46;4.43;;;1.77;;
11854;SDS011;5987;53.140;8.904;2023-04-19T18:47:55;2.27;;;1.40;;
11854;SDS011;5987;53.140;8.904;2023-04-19T18:50:58;2.63;;;1.20;;
11854;SDS011;5987;53.140;8.904;2023-04-19T18:54:02;1.97;;;1.77;;
11854;SDS011;5987;53.140;8.904;2023-04-19T18:57:07;6.60;;;1.60;;
11854;SDS011;5987;53.140;8.904;2023-04-19T19:00:27;2.27;;;1.27;;
11854;SDS011;5987;53.140;8.904;2023-04-19T19:03:30;3.27;;;1.77;;